AEA78ZG LFPO-LEMD
Flight info
| Callsign | AEA78ZG |
|---|---|
| Flight time | N/A |
| Altitude | 33000 |
| Route | AGOPA DCT ARKIP DCT ARMAL DCT ARTAX DCT BEBIX DCT LMG DCT UVELI DCT OSMOB DCT VAVIX DCT NETUK N857 BANEV |
| Aircraft | B738/M-SDE2E3FGHIRWXY/LB1 |
Departure
| Time | N/A |
|---|---|
| Airport | Paris-Orly Airport (LFPO) |
Arrival
| Time | 2026-05-04 14:10 |
|---|---|
| Airport | Adolfo Suárez Madrid–Barajas Airport (LEMD) |
| Time | Latitude | Longitude | Altitude | Speed | Heading |
|---|---|---|---|---|---|
| 2026-05-04 13:05 | 45.67380 | 0.85583 | 32929 ft | 415 kts | 218° |
| 2026-05-04 13:06 | 45.62941 | 0.80305 | 32925 ft | 415 kts | 218° |
| 2026-05-04 13:06 | 45.59258 | 0.75924 | 32914 ft | 415 kts | 218° |
| 2026-05-04 13:07 | 45.54091 | 0.69789 | 32924 ft | 415 kts | 218° |
| 2026-05-04 13:07 | 45.50364 | 0.65372 | 32921 ft | 415 kts | 218° |
| 2026-05-04 13:08 | 45.47866 | 0.62417 | 32921 ft | 415 kts | 218° |
| 2026-05-04 13:08 | 45.43418 | 0.57164 | 32905 ft | 415 kts | 218° |
| 2026-05-04 13:09 | 45.38970 | 0.51923 | 32914 ft | 415 kts | 218° |
| 2026-05-04 13:09 | 45.34519 | 0.46688 | 32908 ft | 415 kts | 218° |
| 2026-05-04 13:10 | 45.30064 | 0.41460 | 32921 ft | 415 kts | 218° |
| 2026-05-04 13:10 | 45.25637 | 0.36275 | 32908 ft | 415 kts | 218° |
| 2026-05-04 13:11 | 45.21174 | 0.31060 | 32910 ft | 415 kts | 218° |
| 2026-05-04 13:11 | 45.16716 | 0.25860 | 32910 ft | 415 kts | 218° |
| 2026-05-04 13:12 | 45.12257 | 0.20670 | 32918 ft | 415 kts | 218° |
| 2026-05-04 13:12 | 45.07802 | 0.15493 | 32916 ft | 414 kts | 218° |
| 2026-05-04 13:13 | 45.03340 | 0.10323 | 32916 ft | 414 kts | 218° |
| 2026-05-04 13:13 | 44.98882 | 0.05169 | 32915 ft | 414 kts | 218° |
| 2026-05-04 13:14 | 44.94449 | 0.00054 | 32915 ft | 413 kts | 218° |
| 2026-05-04 13:14 | 44.89996 | -0.05076 | 32914 ft | 413 kts | 218° |
| 2026-05-04 13:15 | 44.85547 | -0.10191 | 32910 ft | 412 kts | 218° |
| 2026-05-04 13:15 | 44.81100 | -0.15294 | 32915 ft | 412 kts | 218° |
| 2026-05-04 13:16 | 44.76659 | -0.20379 | 32921 ft | 411 kts | 218° |
| 2026-05-04 13:16 | 44.72216 | -0.25458 | 32924 ft | 411 kts | 217° |
| 2026-05-04 13:17 | 44.67784 | -0.30514 | 32927 ft | 411 kts | 217° |
| 2026-05-04 13:17 | 44.63279 | -0.35443 | 32926 ft | 410 kts | 214° |
| 2026-05-04 13:18 | 44.58608 | -0.39940 | 32932 ft | 409 kts | 213° |
| 2026-05-04 13:18 | 44.53870 | -0.44453 | 32930 ft | 409 kts | 213° |
| 2026-05-04 13:19 | 44.49189 | -0.48936 | 32932 ft | 410 kts | 213° |
| 2026-05-04 13:19 | 44.44490 | -0.53445 | 32933 ft | 410 kts | 213° |
| 2026-05-04 13:20 | 44.39782 | -0.57956 | 32936 ft | 410 kts | 213° |
| 2026-05-04 13:20 | 44.35075 | -0.62458 | 32943 ft | 410 kts | 213° |
| 2026-05-04 13:21 | 44.30363 | -0.66956 | 32948 ft | 411 kts | 213° |
| 2026-05-04 13:21 | 44.25620 | -0.71443 | 32957 ft | 412 kts | 213° |
| 2026-05-04 13:22 | 44.20839 | -0.75840 | 32952 ft | 412 kts | 212° |
| 2026-05-04 13:22 | 44.16048 | -0.80222 | 32955 ft | 412 kts | 212° |
| 2026-05-04 13:23 | 44.11256 | -0.84608 | 32960 ft | 412 kts | 212° |
| 2026-05-04 13:23 | 44.06460 | -0.88997 | 32962 ft | 412 kts | 212° |
| 2026-05-04 13:24 | 44.01667 | -0.93378 | 32966 ft | 412 kts | 212° |
| 2026-05-04 13:24 | 43.96869 | -0.97754 | 32976 ft | 413 kts | 212° |
| 2026-05-04 13:25 | 43.89691 | -1.04286 | 32987 ft | 413 kts | 212° |
| 2026-05-04 13:25 | 43.84882 | -1.08651 | 32989 ft | 413 kts | 212° |
| 2026-05-04 13:26 | 43.80071 | -1.13009 | 32996 ft | 413 kts | 213° |
| 2026-05-04 13:26 | 43.75262 | -1.17360 | 32990 ft | 413 kts | 213° |
| 2026-05-04 13:27 | 43.70460 | -1.21728 | 32994 ft | 413 kts | 213° |
| 2026-05-04 13:27 | 43.65661 | -1.26098 | 32994 ft | 413 kts | 213° |
| 2026-05-04 13:28 | 43.60868 | -1.30457 | 32997 ft | 412 kts | 213° |
| 2026-05-04 13:28 | 43.56078 | -1.34810 | 33020 ft | 412 kts | 213° |
| 2026-05-04 13:29 | 43.51291 | -1.39156 | 33022 ft | 412 kts | 213° |
| 2026-05-04 13:29 | 43.46500 | -1.43503 | 33016 ft | 412 kts | 213° |
| 2026-05-04 13:30 | 43.41725 | -1.47834 | 33031 ft | 411 kts | 213° |
| 2026-05-04 13:30 | 43.36949 | -1.52167 | 33023 ft | 412 kts | 213° |
| 2026-05-04 13:31 | 43.32182 | -1.56454 | 33007 ft | 412 kts | 212° |
| 2026-05-04 13:31 | 43.27314 | -1.60573 | 33000 ft | 410 kts | 204° |
| 2026-05-04 13:32 | 43.24593 | -1.61748 | 33035 ft | 411 kts | 193° |
| 2026-05-04 13:32 | 43.21772 | -1.62392 | 33003 ft | 412 kts | 188° |
| 2026-05-04 13:32 | 43.16064 | -1.63190 | 33021 ft | 411 kts | 189° |
| 2026-05-04 13:33 | 43.10387 | -1.64122 | 33013 ft | 411 kts | 189° |
| 2026-05-04 13:33 | 43.04668 | -1.65077 | 33255 ft | 416 kts | 189° |
| 2026-05-04 13:34 | 43.01797 | -1.65553 | 33559 ft | 414 kts | 189° |
| 2026-05-04 13:34 | 42.98938 | -1.66023 | 33842 ft | 413 kts | 189° |
| 2026-05-04 13:34 | 42.96126 | -1.66485 | 34028 ft | 413 kts | 189° |
| 2026-05-04 13:34 | 42.93260 | -1.66955 | 34139 ft | 415 kts | 189° |
| 2026-05-04 13:35 | 42.90389 | -1.67426 | 34256 ft | 417 kts | 189° |
| 2026-05-04 13:35 | 42.84624 | -1.68369 | 34654 ft | 418 kts | 189° |
| 2026-05-04 13:35 | 42.81735 | -1.68841 | 34881 ft | 418 kts | 189° |
| 2026-05-04 13:36 | 42.78838 | -1.69314 | 34983 ft | 420 kts | 189° |
| 2026-05-04 13:36 | 42.73082 | -1.70723 | 34995 ft | 418 kts | 199° |
| 2026-05-04 13:37 | 42.67791 | -1.73880 | 34990 ft | 415 kts | 208° |
| 2026-05-04 13:37 | 42.62643 | -1.77402 | 34984 ft | 414 kts | 207° |
| 2026-05-04 13:38 | 42.57487 | -1.80884 | 34981 ft | 414 kts | 207° |
| 2026-05-04 13:38 | 42.52360 | -1.84317 | 34967 ft | 414 kts | 207° |
| 2026-05-04 13:39 | 42.47159 | -1.87791 | 34974 ft | 414 kts | 207° |
| 2026-05-04 13:39 | 42.42015 | -1.91221 | 34960 ft | 416 kts | 207° |
| 2026-05-04 13:40 | 42.36818 | -1.94688 | 34974 ft | 417 kts | 207° |
| 2026-05-04 13:40 | 42.31598 | -1.98166 | 34958 ft | 419 kts | 207° |
| 2026-05-04 13:41 | 42.26364 | -2.01654 | 34967 ft | 420 kts | 208° |
| 2026-05-04 13:41 | 42.21106 | -2.05144 | 34953 ft | 421 kts | 208° |
| 2026-05-04 13:42 | 42.13205 | -2.10373 | 34952 ft | 422 kts | 208° |
| 2026-05-04 13:42 | 42.10563 | -2.12117 | 34646 ft | 428 kts | 208° |
| 2026-05-04 13:42 | 42.07892 | -2.13880 | 34181 ft | 424 kts | 208° |
| 2026-05-04 13:43 | 42.05239 | -2.15628 | 33348 ft | 425 kts | 207° |
| 2026-05-04 13:43 | 42.02615 | -2.17356 | 32601 ft | 424 kts | 207° |
| 2026-05-04 13:43 | 41.99970 | -2.19097 | 31862 ft | 424 kts | 207° |
| 2026-05-04 13:43 | 41.97319 | -2.20840 | 31083 ft | 424 kts | 207° |
| 2026-05-04 13:44 | 41.94670 | -2.22580 | 30343 ft | 422 kts | 207° |
| 2026-05-04 13:44 | 41.92062 | -2.24291 | 29650 ft | 411 kts | 207° |
| 2026-05-04 13:44 | 41.89500 | -2.25970 | 29044 ft | 407 kts | 207° |
| 2026-05-04 13:44 | 41.86967 | -2.27630 | 28478 ft | 402 kts | 207° |
| 2026-05-04 13:45 | 41.84473 | -2.29262 | 27926 ft | 397 kts | 207° |
| 2026-05-04 13:45 | 41.81999 | -2.30881 | 27376 ft | 393 kts | 207° |
| 2026-05-04 13:45 | 41.79550 | -2.32481 | 26810 ft | 390 kts | 207° |
| 2026-05-04 13:45 | 41.77132 | -2.34060 | 26288 ft | 386 kts | 207° |
| 2026-05-04 13:46 | 41.74728 | -2.35630 | 25745 ft | 383 kts | 207° |
| 2026-05-04 13:46 | 41.72338 | -2.37188 | 25217 ft | 380 kts | 207° |
| 2026-05-04 13:46 | 41.69970 | -2.38731 | 24698 ft | 378 kts | 207° |
| 2026-05-04 13:46 | 41.67641 | -2.40247 | 24187 ft | 376 kts | 207° |
| 2026-05-04 13:47 | 41.65295 | -2.41773 | 23657 ft | 374 kts | 207° |
| 2026-05-04 13:47 | 41.62960 | -2.43290 | 23066 ft | 373 kts | 207° |
| 2026-05-04 13:47 | 41.60632 | -2.44802 | 22493 ft | 370 kts | 207° |
| 2026-05-04 13:47 | 41.58329 | -2.46296 | 21971 ft | 367 kts | 207° |
| 2026-05-04 13:48 | 41.56038 | -2.47782 | 21487 ft | 363 kts | 207° |
| 2026-05-04 13:48 | 41.53771 | -2.49251 | 20969 ft | 362 kts | 207° |
| 2026-05-04 13:48 | 41.51508 | -2.50716 | 20467 ft | 361 kts | 207° |
| 2026-05-04 13:48 | 41.49246 | -2.52176 | 19961 ft | 364 kts | 207° |
| 2026-05-04 13:49 | 41.46937 | -2.53659 | 19437 ft | 372 kts | 207° |
| 2026-05-04 13:49 | 41.44607 | -2.55149 | 19037 ft | 368 kts | 207° |
| 2026-05-04 13:49 | 41.42343 | -2.56595 | 18864 ft | 356 kts | 207° |
| 2026-05-04 13:49 | 41.40149 | -2.57996 | 18712 ft | 344 kts | 208° |
| 2026-05-04 13:50 | 41.38022 | -2.59355 | 18554 ft | 334 kts | 208° |
| 2026-05-04 13:50 | 41.35963 | -2.60670 | 18421 ft | 323 kts | 208° |
| 2026-05-04 13:50 | 41.33963 | -2.61945 | 18268 ft | 314 kts | 208° |
| 2026-05-04 13:50 | 41.32172 | -2.63489 | 18058 ft | 303 kts | 225° |
| 2026-05-04 13:51 | 41.30838 | -2.65627 | 17730 ft | 299 kts | 234° |
| 2026-05-04 13:51 | 41.29631 | -2.67872 | 17379 ft | 297 kts | 236° |
| 2026-05-04 13:51 | 41.28450 | -2.70106 | 17041 ft | 295 kts | 236° |
| 2026-05-04 13:51 | 41.27273 | -2.72322 | 16711 ft | 292 kts | 235° |
| 2026-05-04 13:52 | 41.25330 | -2.75947 | 16324 ft | 284 kts | 235° |
| 2026-05-04 13:52 | 41.24197 | -2.78045 | 16193 ft | 276 kts | 235° |
| 2026-05-04 13:52 | 41.23091 | -2.80087 | 16061 ft | 268 kts | 235° |
| 2026-05-04 13:53 | 41.21676 | -2.82693 | 15918 ft | 257 kts | 235° |
| 2026-05-04 13:53 | 41.20977 | -2.83980 | 15837 ft | 252 kts | 235° |
| 2026-05-04 13:53 | 41.19964 | -2.85842 | 15681 ft | 246 kts | 235° |
| 2026-05-04 13:54 | 41.17933 | -2.89567 | 15184 ft | 253 kts | 235° |
| 2026-05-04 13:54 | 41.16893 | -2.91472 | 14913 ft | 257 kts | 235° |
| 2026-05-04 13:54 | 41.15297 | -2.94393 | 14480 ft | 259 kts | 235° |
| 2026-05-04 13:55 | 41.14242 | -2.96323 | 14198 ft | 258 kts | 235° |
| 2026-05-04 13:55 | 41.12131 | -3.00181 | 13599 ft | 259 kts | 235° |
| 2026-05-04 13:55 | 41.11075 | -3.02107 | 13291 ft | 257 kts | 235° |
| 2026-05-04 13:56 | 41.10033 | -3.04008 | 13012 ft | 254 kts | 235° |
| 2026-05-04 13:56 | 41.08996 | -3.05901 | 12725 ft | 253 kts | 235° |
| 2026-05-04 13:56 | 41.06947 | -3.09633 | 12175 ft | 250 kts | 235° |
| 2026-05-04 13:57 | 41.05926 | -3.11493 | 11899 ft | 249 kts | 235° |
| 2026-05-04 13:57 | 41.04906 | -3.13348 | 11622 ft | 248 kts | 235° |
| 2026-05-04 13:58 | 41.01861 | -3.18884 | 10812 ft | 247 kts | 235° |
| 2026-05-04 13:58 | 40.99843 | -3.22545 | 10243 ft | 242 kts | 235° |
| 2026-05-04 13:58 | 40.98861 | -3.24326 | 9973 ft | 238 kts | 235° |
| 2026-05-04 13:59 | 40.97880 | -3.26105 | 9714 ft | 239 kts | 235° |
| 2026-05-04 13:59 | 40.96897 | -3.27886 | 9434 ft | 240 kts | 236° |
| 2026-05-04 13:59 | 40.94913 | -3.31479 | 8872 ft | 241 kts | 236° |
| 2026-05-04 14:00 | 40.93933 | -3.33248 | 8582 ft | 235 kts | 235° |
| 2026-05-04 14:00 | 40.92067 | -3.36638 | 8089 ft | 226 kts | 240° |
| 2026-05-04 14:00 | 40.91622 | -3.38595 | 7875 ft | 223 kts | 268° |
| 2026-05-04 14:01 | 40.91779 | -3.40646 | 7677 ft | 228 kts | 280° |
| 2026-05-04 14:01 | 40.92114 | -3.42724 | 7445 ft | 233 kts | 281° |
| 2026-05-04 14:01 | 40.92356 | -3.46963 | 6982 ft | 234 kts | 259° |
| 2026-05-04 14:02 | 40.92061 | -3.49077 | 6737 ft | 231 kts | 260° |
| 2026-05-04 14:02 | 40.91465 | -3.51009 | 6490 ft | 227 kts | 234° |
| 2026-05-04 14:02 | 40.90340 | -3.52387 | 6349 ft | 218 kts | 214° |
| 2026-05-04 14:02 | 40.89028 | -3.53269 | 6221 ft | 206 kts | 208° |
| 2026-05-04 14:03 | 40.87737 | -3.54043 | 6082 ft | 203 kts | 208° |
| 2026-05-04 14:03 | 40.86415 | -3.54706 | 5949 ft | 205 kts | 197° |
| 2026-05-04 14:03 | 40.85014 | -3.55037 | 5860 ft | 204 kts | 192° |
| 2026-05-04 14:03 | 40.83617 | -3.55325 | 5739 ft | 201 kts | 192° |
| 2026-05-04 14:04 | 40.80853 | -3.55887 | 5532 ft | 199 kts | 189° |
| 2026-05-04 14:04 | 40.79467 | -3.56010 | 5512 ft | 200 kts | 185° |
| 2026-05-04 14:04 | 40.78065 | -3.56053 | 5492 ft | 202 kts | 185° |
| 2026-05-04 14:05 | 40.75247 | -3.56058 | 5506 ft | 205 kts | 184° |
| 2026-05-04 14:05 | 40.73851 | -3.56050 | 5473 ft | 201 kts | 183° |
| 2026-05-04 14:05 | 40.72456 | -3.56042 | 5493 ft | 196 kts | 183° |
| 2026-05-04 14:06 | 40.71084 | -3.56036 | 5450 ft | 199 kts | 184° |
| 2026-05-04 14:06 | 40.69671 | -3.56029 | 5248 ft | 207 kts | 184° |
| 2026-05-04 14:06 | 40.68239 | -3.56021 | 4982 ft | 204 kts | 183° |
| 2026-05-04 14:06 | 40.66835 | -3.56012 | 4697 ft | 200 kts | 184° |
| 2026-05-04 14:07 | 40.65474 | -3.56003 | 4461 ft | 191 kts | 184° |
| 2026-05-04 14:07 | 40.64154 | -3.55994 | 4211 ft | 190 kts | 184° |
| 2026-05-04 14:07 | 40.62845 | -3.55991 | 3953 ft | 185 kts | 184° |
| 2026-05-04 14:07 | 40.61569 | -3.55985 | 3716 ft | 182 kts | 184° |
| 2026-05-04 14:08 | 40.60308 | -3.55976 | 3464 ft | 178 kts | 184° |
| 2026-05-04 14:08 | 40.59113 | -3.55967 | 3249 ft | 166 kts | 184° |
| 2026-05-04 14:08 | 40.57983 | -3.55964 | 3043 ft | 155 kts | 184° |
| 2026-05-04 14:08 | 40.56903 | -3.55954 | 2737 ft | 153 kts | 184° |
| 2026-05-04 14:09 | 40.54824 | -3.55934 | 2350 ft | 146 kts | 188° |
| 2026-05-04 14:09 | 40.53785 | -3.55942 | 2168 ft | 154 kts | 187° |
| 2026-05-04 14:10 | 40.51753 | -3.55932 | 1952 ft | 112 kts | 180° |
| 2026-05-04 14:10 | 40.51211 | -3.55931 | 1953 ft | 51 kts | 181° |
| 2026-05-04 14:10 | 40.51042 | -3.55956 | 1958 ft | 13 kts | 194° |
| 2026-05-04 14:10 | 40.50961 | -3.55995 | 1959 ft | 12 kts | 209° |
| 2026-05-04 14:11 | 40.50888 | -3.56054 | 1961 ft | 12 kts | 210° |
| 2026-05-04 14:11 | 40.50741 | -3.56148 | 1964 ft | 12 kts | 191° |
| 2026-05-04 14:11 | 40.50657 | -3.56150 | 1963 ft | 12 kts | 179° |
| 2026-05-04 14:12 | 40.50572 | -3.56149 | 1962 ft | 12 kts | 180° |
| 2026-05-04 14:12 | 40.50487 | -3.56149 | 1962 ft | 12 kts | 180° |
| 2026-05-04 14:12 | 40.50312 | -3.56147 | 1960 ft | 13 kts | 180° |
| 2026-05-04 14:13 | 40.50218 | -3.56147 | 1958 ft | 13 kts | 180° |
| 2026-05-04 14:13 | 40.50126 | -3.56147 | 1958 ft | 13 kts | 179° |
| 2026-05-04 14:13 | 40.50037 | -3.56145 | 1958 ft | 13 kts | 179° |
| 2026-05-04 14:13 | 40.49950 | -3.56145 | 1958 ft | 12 kts | 179° |
| 2026-05-04 14:14 | 40.49866 | -3.56145 | 1958 ft | 12 kts | 180° |
| 2026-05-04 14:14 | 40.49700 | -3.56144 | 1958 ft | 12 kts | 180° |
| 2026-05-04 14:14 | 40.49617 | -3.56143 | 1958 ft | 12 kts | 180° |
| 2026-05-04 14:15 | 40.49386 | -3.56142 | 1958 ft | 20 kts | 179° |
| 2026-05-04 14:15 | 40.49113 | -3.56140 | 1958 ft | 19 kts | 179° |
| 2026-05-04 14:16 | 40.48901 | -3.56138 | 1958 ft | 9 kts | 179° |
| 2026-05-04 14:16 | 40.48842 | -3.56138 | 1958 ft | 8 kts | 180° |
| 2026-05-04 14:17 | 40.48769 | -3.56213 | 1960 ft | 8 kts | 270° |
| 2026-05-04 14:17 | 40.48769 | -3.56284 | 1962 ft | 8 kts | 269° |
| 2026-05-04 14:17 | 40.48768 | -3.56442 | 1966 ft | 10 kts | 269° |
| 2026-05-04 14:18 | 40.48767 | -3.56551 | 1973 ft | 14 kts | 270° |
| 2026-05-04 14:18 | 40.48766 | -3.56888 | 1980 ft | 22 kts | 270° |
| 2026-05-04 14:19 | 40.48765 | -3.57284 | 1984 ft | 21 kts | 270° |
| 2026-05-04 14:19 | 40.48764 | -3.57472 | 1988 ft | 20 kts | 270° |
| 2026-05-04 14:19 | 40.48764 | -3.57655 | 1990 ft | 20 kts | 269° |
| 2026-05-04 14:19 | 40.48763 | -3.57759 | 1992 ft | 10 kts | 269° |
| 2026-05-04 14:20 | 40.48763 | -3.57851 | 1995 ft | 10 kts | 270° |
| 2026-05-04 14:20 | 40.48747 | -3.57919 | 1997 ft | 4 kts | 216° |
| 2026-05-04 14:20 | 40.48719 | -3.57926 | 1998 ft | 6 kts | 182° |
| 2026-05-04 14:21 | 40.48581 | -3.57906 | 1997 ft | 11 kts | 152° |
| 2026-05-04 14:21 | 40.48506 | -3.57854 | 1991 ft | 14 kts | 152° |
| 2026-05-04 14:21 | 40.48420 | -3.57791 | 1992 ft | 14 kts | 142° |
| 2026-05-04 14:21 | 40.48340 | -3.57718 | 1993 ft | 14 kts | 142° |
| 2026-05-04 14:22 | 40.48267 | -3.57643 | 1996 ft | 13 kts | 142° |
| 2026-05-04 14:22 | 40.48196 | -3.57572 | 1998 ft | 13 kts | 142° |
| 2026-05-04 14:22 | 40.48127 | -3.57501 | 2000 ft | 12 kts | 142° |
| 2026-05-04 14:22 | 40.48059 | -3.57433 | 2001 ft | 12 kts | 142° |
| 2026-05-04 14:23 | 40.47929 | -3.57302 | 2001 ft | 11 kts | 142° |
| 2026-05-04 14:23 | 40.47864 | -3.57235 | 2001 ft | 13 kts | 142° |
| 2026-05-04 14:23 | 40.47791 | -3.57162 | 1999 ft | 13 kts | 143° |
| 2026-05-04 14:24 | 40.47719 | -3.57088 | 1997 ft | 10 kts | 141° |
| 2026-05-04 14:24 | 40.47663 | -3.57048 | 1995 ft | 10 kts | 184° |
| 2026-05-04 14:24 | 40.47617 | -3.57109 | 1996 ft | 9 kts | 232° |
| 2026-05-04 14:24 | 40.47577 | -3.57176 | 1996 ft | 9 kts | 232° |
| 2026-05-04 14:25 | 40.47534 | -3.57206 | 1995 ft | 5 kts | 167° |
| 2026-05-04 14:25 | 40.47444 | -3.57162 | 1992 ft | 9 kts | 159° |
| 2026-05-04 14:25 | 40.47423 | -3.57096 | 1991 ft | 6 kts | 101° |
| 2026-05-04 14:26 | 40.47414 | -3.57089 | 1991 ft | 4 kts | 159° |
| 2026-05-04 14:26 | 40.47385 | -3.57088 | 1990 ft | 4 kts | 181° |
| 2026-05-04 14:26 | 40.47364 | -3.57089 | 1989 ft | 2 kts | 182° |
| 2026-05-04 14:26 | 40.47362 | -3.57089 | 1989 ft | 0 kts | 182° |